createdAt,value
2019-01-23T00:02:45.949Z,39.17
2019-01-23T00:07:48.113Z,38.80
2019-01-23T00:12:50.878Z,37.33
2019-01-23T00:17:53.405Z,36.37
2019-01-23T00:22:55.686Z,36.10
2019-01-23T00:27:57.871Z,36.60
2019-01-23T00:33:00.052Z,34.23
2019-01-23T00:38:03.005Z,35.53
2019-01-23T00:43:05.234Z,35.07
2019-01-23T00:48:07.533Z,35.43
2019-01-23T00:53:10.558Z,36.13
2019-01-23T00:58:12.830Z,34.27
2019-01-23T01:03:15.123Z,33.73
2019-01-23T01:08:18.159Z,34.67
2019-01-23T01:13:20.328Z,35.67
2019-01-23T01:18:23.074Z,34.87
2019-01-23T01:23:25.363Z,34.03
2019-01-23T01:28:27.886Z,34.20
2019-01-23T01:33:33.948Z,33.77
2019-01-23T01:38:34.149Z,35.47
2019-01-23T01:43:36.312Z,34.60
2019-01-23T01:48:38.513Z,34.77
2019-01-23T01:53:41.782Z,36.10
2019-01-23T01:58:44.615Z,33.27
2019-01-23T02:04:20.703Z,34.03
2019-01-23T02:35:36.756Z,35.83
2019-01-23T02:40:38.902Z,37.00
2019-01-23T02:45:41.049Z,35.67
2019-01-23T02:50:44.179Z,36.57
2019-01-23T02:55:46.996Z,36.27
2019-01-23T03:00:49.777Z,37.07
2019-01-23T03:05:52.782Z,37.83
2019-01-23T03:10:55.535Z,37.03
2019-01-23T03:15:58.373Z,38.40
2019-01-23T03:21:00.528Z,37.63
2019-01-23T03:26:03.037Z,36.13
2019-01-23T03:31:05.630Z,36.70
2019-01-23T03:36:08.227Z,37.70
2019-01-23T03:41:11.884Z,37.53
2019-01-23T03:46:14.062Z,37.97
2019-01-23T03:51:16.616Z,37.73
2019-01-23T03:56:18.808Z,36.33
2019-01-23T04:01:21.375Z,35.87
2019-01-23T04:06:23.817Z,37.90
2019-01-23T04:11:25.982Z,36.90
2019-01-23T04:16:28.195Z,39.93
2019-01-23T04:21:30.723Z,40.67
2019-01-23T04:26:33.258Z,36.77
2019-01-23T04:31:35.763Z,37.03
2019-01-23T04:36:37.955Z,37.10
2019-01-23T04:41:40.234Z,35.50
2019-01-23T04:46:42.727Z,33.03
2019-01-23T04:51:52.035Z,36.13
2019-01-23T04:56:54.280Z,37.57
2019-01-23T05:01:56.748Z,37.23
2019-01-23T05:06:58.921Z,34.53
2019-01-23T05:12:01.621Z,33.97
2019-01-23T05:17:03.848Z,35.73
2019-01-23T05:22:06.028Z,35.30
2019-01-23T05:27:08.527Z,34.60
2019-01-23T05:32:10.724Z,35.67
2019-01-23T05:37:12.908Z,35.77
2019-01-23T05:42:15.704Z,36.93
2019-01-23T05:47:17.983Z,36.53
2019-01-23T05:52:20.428Z,31.93
2019-01-23T05:57:23.230Z,36.60
2019-01-23T06:02:26.309Z,35.97
2019-01-23T06:07:28.820Z,36.67
2019-01-23T06:12:31.518Z,37.50
2019-01-23T06:17:34.732Z,36.87
2019-01-23T06:22:37.531Z,37.27
2019-01-23T06:27:39.947Z,38.27
2019-01-23T06:32:42.209Z,38.13
2019-01-23T06:37:44.581Z,38.10
2019-01-23T06:42:47.787Z,39.37
2019-01-23T06:47:50.308Z,40.50
2019-01-23T06:52:52.471Z,39.33
2019-01-23T06:57:54.654Z,42.57
2019-01-23T07:02:57.169Z,42.97
2019-01-23T07:07:59.315Z,45.07
2019-01-23T07:13:02.329Z,42.00
2019-01-23T07:18:04.853Z,46.33
2019-01-23T07:23:07.082Z,46.60
2019-01-23T07:28:09.275Z,46.30
2019-01-23T07:33:11.650Z,47.53
2019-01-23T07:38:14.079Z,48.90
2019-01-23T07:43:16.325Z,48.23
2019-01-23T07:48:18.563Z,53.43
2019-01-23T07:53:21.147Z,50.80
2019-01-23T07:58:24.146Z,50.57
2019-01-23T08:03:26.970Z,53.47
2019-01-23T08:08:29.758Z,56.40
2019-01-23T08:13:32.038Z,56.90
2019-01-23T08:18:34.284Z,57.97
2019-01-23T08:23:36.476Z,55.97
2019-01-23T08:28:38.739Z,62.20
2019-01-23T08:33:41.291Z,60.83
2019-01-23T08:38:44.807Z,61.80
2019-01-23T08:43:47.580Z,62.03
2019-01-23T08:48:50.518Z,66.53
2019-01-23T08:53:52.716Z,63.90
2019-01-23T08:58:54.903Z,64.47
2019-01-23T09:03:57.366Z,66.77
2019-01-23T09:08:59.566Z,71.90
2019-01-23T09:14:01.827Z,71.33
2019-01-23T09:19:04.455Z,73.87
2019-01-23T09:24:06.648Z,78.20
2019-01-23T09:29:08.914Z,78.17
2019-01-23T09:35:00.354Z,78.60
2019-01-23T09:40:35.166Z,80.60
2019-01-23T09:46:25.675Z,77.93
2019-01-23T09:52:23.439Z,81.73
2019-01-23T09:57:26.153Z,80.30
2019-01-23T10:02:28.417Z,79.90
2019-01-23T10:07:30.617Z,81.70
2019-01-23T10:12:33.141Z,82.53
2019-01-23T10:17:35.861Z,81.27
2019-01-23T10:22:38.771Z,85.43
2019-01-23T10:27:40.938Z,83.40
2019-01-23T10:32:43.524Z,82.87
2019-01-23T10:37:45.814Z,77.93
2019-01-23T10:42:48.402Z,77.23
2019-01-23T10:47:56.080Z,78.97
2019-01-23T10:52:54.968Z,80.70
2019-01-23T10:57:57.143Z,79.47
2019-01-23T11:03:00.243Z,78.70
2019-01-23T11:08:02.637Z,78.50
2019-01-23T11:13:05.140Z,77.10
2019-01-23T11:18:07.966Z,76.67
2019-01-23T11:23:10.472Z,77.27
2019-01-23T11:28:13.052Z,76.93
2019-01-23T11:33:15.235Z,76.97
2019-01-23T11:38:17.439Z,78.20
2019-01-23T11:43:20.065Z,74.97
2019-01-23T11:48:22.328Z,75.93
2019-01-23T11:53:24.824Z,74.73
2019-01-23T11:58:26.978Z,79.57
2019-01-23T12:03:30.141Z,77.20
2019-01-23T12:08:32.551Z,65.87
2019-01-23T12:13:34.757Z,74.90
2019-01-23T12:18:37.027Z,73.30
2019-01-23T12:23:39.275Z,73.40
2019-01-23T12:28:41.483Z,72.40
2019-01-23T12:33:44.265Z,71.07
2019-01-23T12:38:47.061Z,69.23
2019-01-23T12:43:49.845Z,70.67
2019-01-23T12:48:52.219Z,73.60
2019-01-23T12:53:54.411Z,71.23
2019-01-23T12:58:56.607Z,70.50
2019-01-23T13:03:59.239Z,68.90
2019-01-23T13:09:01.527Z,69.93
2019-01-23T13:14:06.401Z,66.17
2019-01-23T13:19:08.873Z,65.40
2019-01-23T13:24:11.217Z,65.40
2019-01-23T13:29:14.102Z,64.43
2019-01-23T13:34:17.021Z,62.40
2019-01-23T13:39:19.319Z,59.20
2019-01-23T13:44:21.441Z,60.03
2019-01-23T13:49:24.405Z,56.17
2019-01-23T13:54:27.185Z,55.53
2019-01-23T13:59:29.890Z,52.27
2019-01-23T14:04:32.200Z,49.93
2019-01-23T14:09:34.378Z,51.23
2019-01-23T14:14:36.571Z,46.17
2019-01-23T14:19:39.575Z,42.50
2019-01-23T14:24:42.447Z,44.33
2019-01-23T14:29:45.045Z,46.00
2019-01-23T14:34:48.051Z,43.03
2019-01-23T14:39:50.580Z,42.17
2019-01-23T14:44:52.780Z,42.03
2019-01-23T14:49:55.073Z,42.47
2019-01-23T14:54:57.268Z,40.60
2019-01-23T14:59:59.595Z,40.63
2019-01-23T15:05:02.018Z,38.10
2019-01-23T15:10:08.537Z,37.30
2019-01-23T15:15:11.870Z,37.50
2019-01-23T15:20:21.326Z,33.87
2019-01-23T15:25:24.129Z,32.83
2019-01-23T15:30:26.743Z,32.30
2019-01-23T15:35:29.371Z,31.07
2019-01-23T15:40:37.749Z,31.50
2019-01-23T15:45:40.131Z,30.43
2019-01-23T15:50:43.045Z,27.63
2019-01-23T15:55:45.324Z,29.47
2019-01-23T16:00:47.722Z,27.67
2019-01-23T16:05:50.203Z,28.57
2019-01-23T16:10:52.746Z,27.40
2019-01-23T16:15:55.292Z,29.10
2019-01-23T16:20:57.885Z,27.60
2019-01-23T16:26:00.983Z,27.73
2019-01-23T16:31:03.557Z,26.93
2019-01-23T16:36:07.219Z,27.23
2019-01-23T16:41:09.395Z,27.63
2019-01-23T16:46:12.897Z,26.87
2019-01-23T16:51:15.380Z,25.87
2019-01-23T16:56:17.650Z,25.90
2019-01-23T17:01:20.601Z,28.77
2019-01-23T17:06:23.090Z,26.13
2019-01-23T17:11:25.365Z,25.50
2019-01-23T17:16:27.571Z,25.73
2019-01-23T17:21:31.249Z,25.87
2019-01-23T17:26:34.165Z,25.73
2019-01-23T17:31:36.756Z,25.90
2019-01-23T17:36:39.507Z,26.90
2019-01-23T17:41:41.704Z,26.53
2019-01-23T17:46:44.964Z,25.27
2019-01-23T17:51:47.247Z,25.87
2019-01-23T17:56:49.857Z,25.87
2019-01-23T18:01:52.749Z,26.00
2019-01-23T18:06:55.174Z,25.10
2019-01-23T18:11:58.040Z,24.63
2019-01-23T18:17:00.430Z,26.43
2019-01-23T18:22:03.308Z,25.73
2019-01-23T18:27:05.625Z,26.33
2019-01-23T18:32:09.516Z,25.07
2019-01-23T18:37:39.288Z,27.60
2019-01-23T18:43:37.459Z,25.73
2019-01-23T18:49:09.977Z,26.57
2019-01-23T18:54:12.735Z,26.03
2019-01-23T18:59:14.906Z,26.90
2019-01-23T19:04:17.353Z,25.70
2019-01-23T19:09:19.546Z,25.47
2019-01-23T19:14:24.505Z,25.83
2019-01-23T19:19:26.007Z,28.27
2019-01-23T19:24:28.923Z,26.47
2019-01-23T19:29:31.077Z,25.97
2019-01-23T19:34:33.601Z,24.80
2019-01-23T19:39:35.836Z,25.80
2019-01-23T19:44:38.133Z,21.97
2019-01-23T19:49:40.966Z,25.97
2019-01-23T19:54:43.896Z,24.00
2019-01-23T19:59:46.101Z,25.57
2019-01-23T20:04:48.669Z,26.47
2019-01-23T20:09:51.206Z,26.40
2019-01-23T20:14:53.403Z,26.20
2019-01-23T20:19:55.933Z,27.13
2019-01-23T20:24:58.610Z,26.00
2019-01-23T20:30:00.874Z,27.23
2019-01-23T20:35:04.996Z,26.33
2019-01-23T20:40:08.507Z,26.53
2019-01-23T20:45:12.247Z,26.10
2019-01-23T20:50:19.477Z,29.27
2019-01-23T20:55:21.988Z,25.17
2019-01-23T21:00:27.562Z,24.60
2019-01-23T21:05:30.557Z,26.10
2019-01-23T21:10:33.553Z,27.33
2019-01-23T21:15:35.723Z,26.27
2019-01-23T21:20:40.320Z,25.97
2019-01-23T21:25:42.640Z,26.47
2019-01-23T21:30:45.146Z,28.50
2019-01-23T21:35:47.798Z,27.13
2019-01-23T21:40:50.013Z,28.20
2019-01-23T21:45:52.196Z,25.97
2019-01-23T21:50:54.391Z,26.17
2019-01-23T21:55:56.614Z,26.53
2019-01-23T22:01:00.118Z,26.50
2019-01-23T22:06:04.019Z,27.10
2019-01-23T22:11:06.218Z,26.87
2019-01-23T22:16:08.550Z,26.70
2019-01-23T22:21:10.811Z,26.43
2019-01-23T22:26:13.271Z,26.40
2019-01-23T22:31:15.463Z,26.87
2019-01-23T22:36:18.137Z,26.40
2019-01-23T22:41:20.334Z,25.73
2019-01-23T22:46:23.049Z,24.90
2019-01-23T22:51:25.514Z,25.83
2019-01-23T22:56:28.342Z,25.77
2019-01-23T23:01:31.927Z,26.23
2019-01-23T23:06:34.222Z,27.13
2019-01-23T23:11:38.240Z,27.73
2019-01-23T23:16:40.732Z,27.87
2019-01-23T23:21:43.068Z,27.70
2019-01-23T23:26:45.545Z,28.13
2019-01-23T23:31:48.857Z,28.53
2019-01-23T23:36:51.730Z,27.30
2019-01-23T23:41:54.522Z,26.63
2019-01-23T23:46:57.025Z,26.70
2019-01-23T23:51:59.655Z,26.37
2019-01-23T23:57:02.272Z,26.67
